Map

Track Data

SID SEASON NUMBER BASIN SUBBASIN NAME ISO_TIME NATURE LAT LON WMO_WIND WMO_PRES WMO_AGENCY TRACK_TYPE DIST2LAND LANDFALL IFLAG USA_AGENCY USA_ATCF_ID USA_LAT USA_LON USA_RECORD USA_STATUS USA_WIND USA_PRES USA_SSHS USA_R34_NE USA_R34_SE USA_R34_SW USA_R34_NW USA_R50_NE USA_R50_SE USA_R50_SW USA_R50_NW USA_R64_NE USA_R64_SE USA_R64_SW USA_R64_NW USA_POCI USA_ROCI USA_RMW USA_EYE TOKYO_LAT TOKYO_LON TOKYO_GRADE TOKYO_WIND TOKYO_PRES TOKYO_R50_DIR TOKYO_R50_LONG TOKYO_R50_SHORT TOKYO_R30_DIR TOKYO_R30_LONG TOKYO_R30_SHORT TOKYO_LAND CMA_LAT CMA_LON CMA_CAT CMA_WIND CMA_PRES HKO_LAT HKO_LON HKO_CAT HKO_WIND HKO_PRES NEWDELHI_LAT NEWDELHI_LON NEWDELHI_GRADE NEWDELHI_WIND NEWDELHI_PRES NEWDELHI_CI NEWDELHI_DP NEWDELHI_POCI REUNION_LAT REUNION_LON REUNION_TYPE REUNION_WIND REUNION_PRES REUNION_TNUM REUNION_CI REUNION_RMW REUNION_R34_NE REUNION_R34_SE REUNION_R34_SW REUNION_R34_NW REUNION_R50_NE REUNION_R50_SE REUNION_R50_SW REUNION_R50_NW REUNION_R64_NE REUNION_R64_SE REUNION_R64_SW REUNION_R64_NW BOM_LAT BOM_LON BOM_TYPE BOM_WIND BOM_PRES BOM_TNUM BOM_CI BOM_RMW BOM_R34_NE BOM_R34_SE BOM_R34_SW BOM_R34_NW BOM_R50_NE BOM_R50_SE BOM_R50_SW BOM_R50_NW BOM_R64_NE BOM_R64_SE BOM_R64_SW BOM_R64_NW BOM_ROCI BOM_POCI BOM_EYE BOM_POS_METHOD BOM_PRES_METHOD NADI_LAT NADI_LON NADI_CAT NADI_WIND NADI_PRES WELLINGTON_LAT WELLINGTON_LON WELLINGTON_WIND WELLINGTON_PRES DS824_LAT DS824_LON DS824_STAGE DS824_WIND DS824_PRES TD9636_LAT TD9636_LON TD9636_STAGE TD9636_WIND TD9636_PRES TD9635_LAT TD9635_LON TD9635_WIND TD9635_PRES TD9635_ROCI NEUMANN_LAT NEUMANN_LON NEUMANN_CLASS NEUMANN_WIND NEUMANN_PRES MLC_LAT MLC_LON MLC_CLASS MLC_WIND MLC_PRES USA_GUST BOM_GUST BOM_GUST_PER REUNION_GUST REUNION_GUST_PER USA_SEAHGT USA_SEARAD_NE USA_SEARAD_SE USA_SEARAD_SW USA_SEARAD_NW STORM_SPEED STORM_DIR
1946027S13060 1946 7 SI MM NOT_NAMED 1946-01-27 06:00:00 TS -12.7000 60.3000 main 873 859 O________OO___ jtwc_sh SH081946 -12.7000 60.3000 -1 -12.7000 60.3000 TC 25 -12.7000 60.3000 1 4 236
1946027S13060 1946 7 SI MM NOT_NAMED 1946-01-27 09:00:00 TS -12.8020 60.1490 main 856 842 P________PP___ SH081946 -12.7975 60.1500 -1 -12.7975 60.1500 TC 25 -12.8110 60.1470 1 4 235
1946027S13060 1946 7 SI MM NOT_NAMED 1946-01-27 12:00:00 TS -12.9059 59.9984 main 842 828 O________OP___ jtwc_sh SH081946 -12.9000 60.0000 -1 -12.9000 60.0000 TC 25 -12.9176 59.9952 1 4 235
1946027S13060 1946 7 SI MM NOT_NAMED 1946-01-27 15:00:00 TS -13.0101 59.8486 main 825 811 P________PP___ SH081946 -13.0075 59.8500 -1 -13.0075 59.8500 TC 25 -13.0154 59.8458 1 4 236
1946027S13060 1946 7 SI MM NOT_NAMED 1946-01-27 18:00:00 TS -13.1000 59.7000 main 811 798 O________OO___ jtwc_sh SH081946 -13.1000 59.7000 -1 -13.1000 59.7000 TC 25 -13.1000 59.7000 1 3 243
1946027S13060 1946 7 SI MM NOT_NAMED 1946-01-27 21:00:00 TS -13.1566 59.5526 main 798 793 P________PP___ SH081946 -13.1500 59.5500 -1 -13.1500 59.5500 TC 25 -13.1699 59.5580 1 3 249
1946027S13060 1946 7 SI MM NOT_NAMED 1946-01-28 00:00:00 TS -13.2116 59.4049 main 793 779 O________OP___ jtwc_sh SH081946 -13.2000 59.4000 -1 -13.2000 59.4000 TC 25 -13.2349 59.4148 1 3 245
1946027S13060 1946 7 SI MM NOT_NAMED 1946-01-28 03:00:00 TS -13.2925 59.2597 main 779 764 P________PP___ SH081946 -13.2850 59.2575 -1 -13.2850 59.2575 TC 25 -13.3074 59.2642 1 4 238
1946027S13060 1946 7 SI MM NOT_NAMED 1946-01-28 06:00:00 TS -13.4000 59.1000 main 764 749 O________OO___ jtwc_sh SH081946 -13.4000 59.1000 -1 -13.4000 59.1000 TC 25 -13.4000 59.1000 1 4 234
1946027S13060 1946 7 SI MM NOT_NAMED 1946-01-28 09:00:00 TS -13.5378 58.9085 main 749 724 P________PP___ SH081946 -13.5425 58.9075 -1 -13.5425 58.9075 TC 25 -13.5285 58.9104 1 5 233
1946027S13060 1946 7 SI MM NOT_NAMED 1946-01-28 12:00:00 TS -13.6925 58.7025 main 724 710 O________OP___ jtwc_sh SH081946 -13.7000 58.7000 -1 -13.7000 58.7000 TC 25 -13.6775 58.7076 1 5 232
1946027S13060 1946 7 SI MM NOT_NAMED 1946-01-28 15:00:00 TS -13.8459 58.5003 main 710 685 P________PP___ SH081946 -13.8500 58.5000 -1 -13.8500 58.5000 TC 25 -13.8378 58.5010 1 5 232
1946027S13060 1946 7 SI MM NOT_NAMED 1946-01-28 18:00:00 TS -14.0000 58.3000 main 685 672 O________OO___ jtwc_sh SH081946 -14.0000 58.3000 -1 -14.0000 58.3000 TC 25 -14.0000 58.3000 1 5 232
1946027S13060 1946 7 SI MM NOT_NAMED 1946-01-28 21:00:00 TS -14.1527 58.0955 main 661 649 P________PP___ SH081946 -14.1500 58.0925 -1 -14.1500 58.0925 TC 25 -14.1581 58.1016 1 5 231
1946027S13060 1946 7 SI MM NOT_NAMED 1946-01-29 00:00:00 TS -14.3050 57.9042 main 649 626 O________OP___ jtwc_sh SH081946 -14.3000 57.9000 -1 -14.3000 57.9000 TC 25 -14.3150 57.9125 1 5 228
1946027S13060 1946 7 SI MM NOT_NAMED 1946-01-29 03:00:00 TS -14.4598 57.7374 main 626 615 P________PP___ SH081946 -14.4575 57.7350 -1 -14.4575 57.7350 TC 25 -14.4644 57.7422 1 4 225
1946027S13060 1946 7 SI MM NOT_NAMED 1946-01-29 06:00:00 TS -14.6000 57.6000 main 615 604 O________OO___ jtwc_sh SH081946 -14.6000 57.6000 -1 -14.6000 57.6000 TC 25 -14.6000 57.6000 1 3 224
1946027S13060 1946 7 SI MM NOT_NAMED 1946-01-29 09:00:00 TS -14.7098 57.4873 main 604 593 P________PP___ SH081946 -14.7075 57.4850 -1 -14.7075 57.4850 TC 25 -14.7143 57.4921 1 3 223
1946027S13060 1946 7 SI MM NOT_NAMED 1946-01-29 12:00:00 TS -14.8050 57.4041 main 593 581 O________OP___ jtwc_sh SH081946 -14.8000 57.4000 -1 -14.8000 57.4000 TC 25 -14.8149 57.4124 1 2 216
1946027S13060 1946 7 SI MM NOT_NAMED 1946-01-29 15:00:00 TS -14.9027 57.3455 main 582 571 P________PP___ SH081946 -14.9000 57.3425 -1 -14.9000 57.3425 TC 25 -14.9081 57.3515 1 2 206
1946027S13060 1946 7 SI MM NOT_NAMED 1946-01-29 18:00:00 TS -15.0000 57.3000 main 571 559 O________OO___ jtwc_sh SH081946 -15.0000 57.3000 -1 -15.0000 57.3000 TC 25 -15.0000 57.3000 1 2 205
1946027S13060 1946 7 SI MM NOT_NAMED 1946-01-29 21:00:00 TS -15.0892 57.2516 main 559 549 P________PP___ SH081946 -15.1000 57.2500 -1 -15.1000 57.2500 TC 25 -15.0675 57.2548 1 2 207
1946027S13060 1946 7 SI MM NOT_NAMED 1946-01-30 00:00:00 TS -15.1800 57.2049 main 549 538 O________OP___ jtwc_sh SH081946 -15.2000 57.2000 -1 -15.2000 57.2000 TC 25 -15.1399 57.2147 1 2 207
1946027S13060 1946 7 SI MM NOT_NAMED 1946-01-30 03:00:00 TS -15.2658 57.1607 main 538 527 P________PP___ SH081946 -15.2775 57.1575 -1 -15.2775 57.1575 TC 25 -15.2425 57.1673 1 2 206
1946027S13060 1946 7 SI MM NOT_NAMED 1946-01-30 06:00:00 TS -15.4000 57.1000 main 527 506 O________OO___ jtwc_sh SH081946 -15.4000 57.1000 -1 -15.4000 57.1000 TC 25 -15.4000 57.1000 1 4 202
1946027S13060 1946 7 SI MM NOT_NAMED 1946-01-30 09:00:00 TS -15.6185 57.0062 main 506 474 P________PP___ SH081946 -15.6125 57.0150 -1 -15.6125 57.0150 TC 25 -15.6304 56.9886 1 5 202
1946027S13060 1946 7 SI MM NOT_NAMED 1946-01-30 12:00:00 TS -15.9059 56.8859 main 474 442 O________OP___ jtwc_sh SH081946 -15.9000 56.9000 -1 -15.9000 56.9000 TC 25 -15.9176 56.8577 1 7 203
1946027S13060 1946 7 SI MM NOT_NAMED 1946-01-30 15:00:00 TS -16.2337 56.7410 main 444 402 P________PP___ SH081946 -16.2275 56.7500 -1 -16.2275 56.7500 TC 25 -16.2460 56.7230 1 8 202
1946027S13060 1946 7 SI MM NOT_NAMED 1946-01-30 18:00:00 TS -16.6000 56.6000 main 402 362 O________OO___ jtwc_sh SH081946 -16.6000 56.6000 -1 -16.6000 56.6000 TC 25 -16.6000 56.6000 1 8 198
1946027S13060 1946 7 SI MM NOT_NAMED 1946-01-30 21:00:00 TS -16.9872 56.4908 main 362 323 P________PP___ SH081946 -17.0000 56.4850 -1 -17.0000 56.4850 TC 25 -16.9615 56.5025 1 8 193
1946027S13060 1946 7 SI MM NOT_NAMED 1946-01-31 00:00:00 TS -17.3808 56.4067 main 323 292 O________OP___ jtwc_sh SH081946 -17.4000 56.4000 -1 -17.4000 56.4000 TC 25 -17.3425 56.4200 1 8 190
1946027S13060 1946 7 SI MM NOT_NAMED 1946-01-31 03:00:00 TS -17.7524 56.3458 main 286 256 P________PP___ SH081946 -17.7650 56.3424 -1 -17.7650 56.3424 TC 30 -17.7272 56.3525 1 7 188
1946027S13060 1946 7 SI MM NOT_NAMED 1946-01-31 06:00:00 TS -18.1000 56.3000 main 256 228 O________OO___ jtwc_sh SH081946 -18.1000 56.3000 -1 -18.1000 56.3000 TC 35 -18.1000 56.3000 2 7 189
1946027S13060 1946 7 SI MM NOT_NAMED 1946-01-31 09:00:00 TS -18.4104 56.2445 main 234 207 P________PP___ SH081946 -18.4000 56.2425 -1 -18.4000 56.2425 TC 35 -18.4312 56.2484 2 6 188
1946027S13060 1946 7 SI MM NOT_NAMED 1946-01-31 12:00:00 TS -18.7167 56.2042 main 207 183 O________OP___ jtwc_sh SH081946 -18.7000 56.2000 -1 -18.7000 56.2000 TC 35 -18.7500 56.2126 2 6 185
1946027S13060 1946 7 SI MM NOT_NAMED 1946-01-31 15:00:00 TS -19.0512 56.1885 main 176 156 P________PP___ SH081946 -19.0425 56.1850 -1 -19.0425 56.1850 TC 35 -19.0687 56.1954 2 7 0
1946027S13060 1946 7 SI MM NOT_NAMED 1946-01-31 18:00:00 TS -19.4000 56.2000 main 156 142 O________OO___ jtwc_sh SH081946 -19.4000 56.2000 -1 -19.4000 56.2000 TC 35 -19.4000 56.2000 2 7 176
1946027S13060 1946 7 SI MM NOT_NAMED 1946-01-31 21:00:00 TS -19.7485 56.2324 main 142 113 P________PP___ SH081946 -19.7425 56.2425 -1 -19.7425 56.2425 TC 30 -19.7606 56.2123 2 7 173
1946027S13060 1946 7 SI MM NOT_NAMED 1946-02-01 00:00:00 TS -20.1116 56.2826 main 113 83 O________OP___ jtwc_sh SH081946 -20.1000 56.3000 -1 -20.1000 56.3000 TC 25 -20.1349 56.2477 2 8 173
1946027S13060 1946 7 SI MM NOT_NAMED 1946-02-01 03:00:00 TS -20.5056 56.3315 main 83 66 P________PP___ SH081946 -20.5000 56.3426 -1 -20.5000 56.3426 TC 25 -20.5168 56.3093 2 8 172
1946027S13060 1946 7 SI MM NOT_NAMED 1946-02-01 06:00:00 TS -20.9000 56.4000 main 66 62 O________OO___ jtwc_sh SH081946 -20.9000 56.4000 -1 -20.9000 56.4000 TC 25 -20.9000 56.4000 1 7 170
1946027S13060 1946 7 SI MM NOT_NAMED 1946-02-01 09:00:00 TS -21.2284 56.4728 main 72 72 P________PP___ SH081946 -21.2500 56.4776 -1 -21.2500 56.4776 TC 25 -21.1852 56.4632 1 7 165
1946027S13060 1946 7 SI MM NOT_NAMED 1946-02-01 12:00:00 TS -21.5614 56.5875 main 89 89 O________OP___ jtwc_sh SH081946 -21.6000 56.6000 -1 -21.6000 56.6000 TC 25 -21.4842 56.5626 1 7 160
1946027S13060 1946 7 SI MM NOT_NAMED 1946-02-01 15:00:00 TS -21.9203 56.7472 main 114 114 P________PP___ SH081946 -21.9474 56.7556 -1 -21.9474 56.7556 TC 25 -21.8661 56.7304 1 9 155
1946027S13060 1946 7 SI MM NOT_NAMED 1946-02-01 18:00:00 TS -22.4000 57.0000 main 174 174 O________OO___ jtwc_sh SH081946 -22.4000 57.0000 -1 -22.4000 57.0000 TC 25 -22.4000 57.0000 1 13 153
1946027S13060 1946 7 SI MM NOT_NAMED 1946-02-01 21:00:00 TS -23.0362 57.3544 main 251 251 P________PP___ SH081946 -22.9873 57.3338 -1 -22.9873 57.3338 TC 25 -23.1340 57.3954 1 17 153
1946027S13060 1946 7 SI MM NOT_NAMED 1946-02-02 00:00:00 TS -23.8776 57.8326 main 355 355 O________OP___ jtwc_sh SH081946 -23.8000 57.8000 -1 -23.8000 57.8000 TC 25 -24.0329 57.8977 1 21 153
1946027S13060 1946 7 SI MM NOT_NAMED 1946-02-02 03:00:00 TS -24.9307 58.4298 main 482 482 P________PP___ SH081946 -24.8758 58.4063 -1 -24.8758 58.4063 TC 25 -25.0404 58.4766 1 25 153
1946027S13060 1946 7 SI MM NOT_NAMED 1946-02-02 06:00:00 TS -26.1000 59.1000 main 632 O________OO___ jtwc_sh SH081946 -26.1000 59.1000 -1 -26.1000 59.1000 TC 25 -26.1000 59.1000 1 26 153

About IBTrACS Database

This database is a web-friendly format of International Best Track Archive for Climate Stewardship (IBTrACS), a global best track data archive curated by NOAA dating back to 1842.

Updated: 2021-12-03